sensor_id;sensor_type;location;lat;lon;timestamp;P1;durP1;ratioP1;P2;durP2;ratioP2
7899;SDS011;3995;50.856;4.404;2023-01-05T00:00:27;20.07;;;5.53;;
7899;SDS011;3995;50.856;4.404;2023-01-05T00:02:58;17.80;;;5.50;;
7899;SDS011;3995;50.856;4.404;2023-01-05T00:05:25;23.53;;;6.07;;
7899;SDS011;3995;50.856;4.404;2023-01-05T00:07:52;19.77;;;6.20;;
7899;SDS011;3995;50.856;4.404;2023-01-05T00:10:19;18.87;;;5.23;;
7899;SDS011;3995;50.856;4.404;2023-01-05T00:13:03;26.00;;;6.17;;
7899;SDS011;3995;50.856;4.404;2023-01-05T00:15:47;21.00;;;5.23;;
7899;SDS011;3995;50.856;4.404;2023-01-05T00:18:34;17.87;;;5.43;;
7899;SDS011;3995;50.856;4.404;2023-01-05T00:21:18;22.03;;;5.03;;
7899;SDS011;3995;50.856;4.404;2023-01-05T00:24:05;22.10;;;6.17;;
7899;SDS011;3995;50.856;4.404;2023-01-05T00:26:32;20.60;;;5.90;;
7899;SDS011;3995;50.856;4.404;2023-01-05T00:28:59;22.17;;;6.07;;
7899;SDS011;3995;50.856;4.404;2023-01-05T00:31:27;28.57;;;5.67;;
7899;SDS011;3995;50.856;4.404;2023-01-05T00:33:56;19.67;;;5.10;;
7899;SDS011;3995;50.856;4.404;2023-01-05T00:36:23;23.70;;;6.27;;
7899;SDS011;3995;50.856;4.404;2023-01-05T00:38:50;19.67;;;5.33;;
7899;SDS011;3995;50.856;4.404;2023-01-05T00:41:18;20.97;;;5.93;;
7899;SDS011;3995;50.856;4.404;2023-01-05T00:43:45;23.50;;;6.67;;
7899;SDS011;3995;50.856;4.404;2023-01-05T00:46:12;25.33;;;6.77;;
7899;SDS011;3995;50.856;4.404;2023-01-05T00:48:39;18.20;;;5.23;;
7899;SDS011;3995;50.856;4.404;2023-01-05T00:51:09;22.20;;;6.10;;
7899;SDS011;3995;50.856;4.404;2023-01-05T00:53:36;20.50;;;5.73;;
7899;SDS011;3995;50.856;4.404;2023-01-05T00:56:04;27.90;;;6.60;;
7899;SDS011;3995;50.856;4.404;2023-01-05T00:58:32;21.03;;;6.50;;
7899;SDS011;3995;50.856;4.404;2023-01-05T01:00:59;21.47;;;6.20;;
7899;SDS011;3995;50.856;4.404;2023-01-05T01:03:26;21.03;;;6.87;;
7899;SDS011;3995;50.856;4.404;2023-01-05T01:05:57;26.33;;;7.07;;
7899;SDS011;3995;50.856;4.404;2023-01-05T01:08:26;22.10;;;6.03;;
7899;SDS011;3995;50.856;4.404;2023-01-05T01:10:55;22.27;;;5.70;;
7899;SDS011;3995;50.856;4.404;2023-01-05T01:13:22;20.20;;;5.97;;
7899;SDS011;3995;50.856;4.404;2023-01-05T01:15:50;26.30;;;5.73;;
7899;SDS011;3995;50.856;4.404;2023-01-05T01:18:17;29.47;;;6.50;;
7899;SDS011;3995;50.856;4.404;2023-01-05T01:20:45;25.27;;;6.13;;
7899;SDS011;3995;50.856;4.404;2023-01-05T01:23:13;23.47;;;5.70;;
7899;SDS011;3995;50.856;4.404;2023-01-05T01:25:42;22.13;;;6.07;;
7899;SDS011;3995;50.856;4.404;2023-01-05T01:28:09;36.17;;;7.60;;
7899;SDS011;3995;50.856;4.404;2023-01-05T01:30:37;24.23;;;6.90;;
7899;SDS011;3995;50.856;4.404;2023-01-05T01:33:04;22.77;;;5.97;;
7899;SDS011;3995;50.856;4.404;2023-01-05T01:35:32;26.23;;;7.27;;
7899;SDS011;3995;50.856;4.404;2023-01-05T01:38:02;25.87;;;6.30;;
7899;SDS011;3995;50.856;4.404;2023-01-05T01:40:29;19.20;;;5.20;;
7899;SDS011;3995;50.856;4.404;2023-01-05T01:43:07;24.27;;;6.10;;
7899;SDS011;3995;50.856;4.404;2023-01-05T01:45:38;21.07;;;6.30;;
7899;SDS011;3995;50.856;4.404;2023-01-05T01:48:06;18.70;;;6.27;;
7899;SDS011;3995;50.856;4.404;2023-01-05T01:50:37;22.40;;;6.23;;
7899;SDS011;3995;50.856;4.404;2023-01-05T01:53:11;34.85;;;7.32;;
7899;SDS011;3995;50.856;4.404;2023-01-05T01:55:42;24.93;;;6.10;;
7899;SDS011;3995;50.856;4.404;2023-01-05T01:58:14;20.30;;;5.87;;
7899;SDS011;3995;50.856;4.404;2023-01-05T02:00:43;34.60;;;6.30;;
7899;SDS011;3995;50.856;4.404;2023-01-05T02:03:12;22.13;;;6.10;;
7899;SDS011;3995;50.856;4.404;2023-01-05T02:05:40;23.20;;;6.20;;
7899;SDS011;3995;50.856;4.404;2023-01-05T02:08:09;21.83;;;6.37;;
7899;SDS011;3995;50.856;4.404;2023-01-05T02:10:43;25.67;;;5.90;;
7899;SDS011;3995;50.856;4.404;2023-01-05T02:13:24;24.03;;;7.03;;
7899;SDS011;3995;50.856;4.404;2023-01-05T02:16:06;26.07;;;7.70;;
7899;SDS011;3995;50.856;4.404;2023-01-05T02:18:47;26.07;;;6.47;;
7899;SDS011;3995;50.856;4.404;2023-01-05T02:21:27;28.60;;;6.17;;
7899;SDS011;3995;50.856;4.404;2023-01-05T02:24:16;26.30;;;6.80;;
7899;SDS011;3995;50.856;4.404;2023-01-05T02:27:05;26.03;;;6.80;;
7899;SDS011;3995;50.856;4.404;2023-01-05T02:33:02;19.50;;;6.33;;
7899;SDS011;3995;50.856;4.404;2023-01-05T02:35:39;24.93;;;6.00;;
7899;SDS011;3995;50.856;4.404;2023-01-05T02:38:14;24.43;;;6.50;;
7899;SDS011;3995;50.856;4.404;2023-01-05T02:40:48;24.93;;;6.37;;
7899;SDS011;3995;50.856;4.404;2023-01-05T02:43:22;26.67;;;6.90;;
7899;SDS011;3995;50.856;4.404;2023-01-05T02:45:49;18.80;;;5.90;;
7899;SDS011;3995;50.856;4.404;2023-01-05T02:48:18;26.90;;;6.53;;
7899;SDS011;3995;50.856;4.404;2023-01-05T02:50:47;28.40;;;7.17;;
7899;SDS011;3995;50.856;4.404;2023-01-05T02:53:22;23.43;;;6.83;;
7899;SDS011;3995;50.856;4.404;2023-01-05T02:55:56;21.47;;;6.43;;
7899;SDS011;3995;50.856;4.404;2023-01-05T02:58:29;22.03;;;5.70;;
7899;SDS011;3995;50.856;4.404;2023-01-05T03:00:59;21.10;;;6.53;;
7899;SDS011;3995;50.856;4.404;2023-01-05T03:03:31;27.30;;;7.00;;
7899;SDS011;3995;50.856;4.404;2023-01-05T03:06:03;31.57;;;6.70;;
7899;SDS011;3995;50.856;4.404;2023-01-05T03:08:36;32.93;;;7.73;;
7899;SDS011;3995;50.856;4.404;2023-01-05T03:11:06;23.20;;;6.17;;
7899;SDS011;3995;50.856;4.404;2023-01-05T03:13:53;23.00;;;6.10;;
7899;SDS011;3995;50.856;4.404;2023-01-05T03:16:24;28.10;;;7.40;;
7899;SDS011;3995;50.856;4.404;2023-01-05T03:18:55;22.27;;;6.40;;
7899;SDS011;3995;50.856;4.404;2023-01-05T03:21:42;22.77;;;6.47;;
7899;SDS011;3995;50.856;4.404;2023-01-05T03:24:27;21.33;;;6.23;;
7899;SDS011;3995;50.856;4.404;2023-01-05T03:27:12;30.97;;;7.60;;
7899;SDS011;3995;50.856;4.404;2023-01-05T03:29:58;24.57;;;6.00;;
7899;SDS011;3995;50.856;4.404;2023-01-05T03:32:44;24.30;;;5.40;;
7899;SDS011;3995;50.856;4.404;2023-01-05T03:35:35;22.37;;;6.97;;
7899;SDS011;3995;50.856;4.404;2023-01-05T03:38:09;20.27;;;6.00;;
7899;SDS011;3995;50.856;4.404;2023-01-05T03:40:39;22.93;;;6.50;;
7899;SDS011;3995;50.856;4.404;2023-01-05T03:43:08;23.43;;;6.20;;
7899;SDS011;3995;50.856;4.404;2023-01-05T03:45:38;31.37;;;7.60;;
7899;SDS011;3995;50.856;4.404;2023-01-05T03:48:08;25.30;;;7.70;;
7899;SDS011;3995;50.856;4.404;2023-01-05T03:50:37;25.00;;;6.97;;
7899;SDS011;3995;50.856;4.404;2023-01-05T03:53:04;23.23;;;7.30;;
7899;SDS011;3995;50.856;4.404;2023-01-05T03:55:32;22.27;;;6.33;;
7899;SDS011;3995;50.856;4.404;2023-01-05T03:57:59;22.13;;;6.40;;
7899;SDS011;3995;50.856;4.404;2023-01-05T04:00:27;23.63;;;6.57;;
7899;SDS011;3995;50.856;4.404;2023-01-05T04:02:54;22.20;;;6.40;;
7899;SDS011;3995;50.856;4.404;2023-01-05T04:05:21;21.17;;;5.83;;
7899;SDS011;3995;50.856;4.404;2023-01-05T04:07:51;25.47;;;6.30;;
7899;SDS011;3995;50.856;4.404;2023-01-05T04:10:19;25.63;;;6.30;;
7899;SDS011;3995;50.856;4.404;2023-01-05T04:12:46;25.97;;;5.73;;
7899;SDS011;3995;50.856;4.404;2023-01-05T04:15:21;23.43;;;7.20;;
7899;SDS011;3995;50.856;4.404;2023-01-05T04:17:49;23.13;;;7.00;;
7899;SDS011;3995;50.856;4.404;2023-01-05T04:20:16;26.50;;;6.77;;
7899;SDS011;3995;50.856;4.404;2023-01-05T04:22:44;27.83;;;7.50;;
7899;SDS011;3995;50.856;4.404;2023-01-05T04:25:12;35.73;;;7.30;;
7899;SDS011;3995;50.856;4.404;2023-01-05T04:27:40;23.87;;;6.30;;
7899;SDS011;3995;50.856;4.404;2023-01-05T04:30:07;27.97;;;6.80;;
7899;SDS011;3995;50.856;4.404;2023-01-05T04:32:35;24.30;;;6.70;;
7899;SDS011;3995;50.856;4.404;2023-01-05T04:35:03;19.40;;;6.17;;
7899;SDS011;3995;50.856;4.404;2023-01-05T04:37:31;27.40;;;6.87;;
7899;SDS011;3995;50.856;4.404;2023-01-05T04:39:59;27.77;;;5.40;;
7899;SDS011;3995;50.856;4.404;2023-01-05T04:42:28;21.30;;;6.83;;
7899;SDS011;3995;50.856;4.404;2023-01-05T04:44:55;24.80;;;7.03;;
7899;SDS011;3995;50.856;4.404;2023-01-05T04:47:22;21.03;;;6.07;;
7899;SDS011;3995;50.856;4.404;2023-01-05T04:49:50;24.43;;;6.23;;
7899;SDS011;3995;50.856;4.404;2023-01-05T04:52:17;23.83;;;6.83;;
7899;SDS011;3995;50.856;4.404;2023-01-05T04:54:45;20.63;;;6.90;;
7899;SDS011;3995;50.856;4.404;2023-01-05T04:57:12;20.53;;;6.50;;
7899;SDS011;3995;50.856;4.404;2023-01-05T04:59:41;29.10;;;7.77;;
7899;SDS011;3995;50.856;4.404;2023-01-05T05:02:09;24.60;;;7.10;;
7899;SDS011;3995;50.856;4.404;2023-01-05T05:04:37;28.20;;;6.90;;
7899;SDS011;3995;50.856;4.404;2023-01-05T05:07:05;20.93;;;6.23;;
7899;SDS011;3995;50.856;4.404;2023-01-05T05:09:32;23.93;;;6.17;;
7899;SDS011;3995;50.856;4.404;2023-01-05T05:12:00;22.17;;;6.87;;
7899;SDS011;3995;50.856;4.404;2023-01-05T05:14:27;22.17;;;5.77;;
7899;SDS011;3995;50.856;4.404;2023-01-05T05:16:56;23.67;;;6.30;;
7899;SDS011;3995;50.856;4.404;2023-01-05T05:19:23;26.00;;;6.60;;
7899;SDS011;3995;50.856;4.404;2023-01-05T05:21:50;25.07;;;6.47;;
7899;SDS011;3995;50.856;4.404;2023-01-05T05:24:18;27.80;;;6.87;;
7899;SDS011;3995;50.856;4.404;2023-01-05T05:26:45;21.50;;;6.20;;
7899;SDS011;3995;50.856;4.404;2023-01-05T05:29:12;32.80;;;7.33;;
7899;SDS011;3995;50.856;4.404;2023-01-05T05:31:39;27.27;;;7.80;;
7899;SDS011;3995;50.856;4.404;2023-01-05T05:34:09;28.57;;;7.17;;
7899;SDS011;3995;50.856;4.404;2023-01-05T05:36:36;31.40;;;7.23;;
7899;SDS011;3995;50.856;4.404;2023-01-05T05:39:04;32.93;;;8.80;;
7899;SDS011;3995;50.856;4.404;2023-01-05T05:41:32;24.47;;;6.30;;
7899;SDS011;3995;50.856;4.404;2023-01-05T05:43:59;21.93;;;4.87;;
7899;SDS011;3995;50.856;4.404;2023-01-05T05:46:26;24.20;;;7.47;;
7899;SDS011;3995;50.856;4.404;2023-01-05T05:48:54;30.70;;;7.60;;
7899;SDS011;3995;50.856;4.404;2023-01-05T05:51:24;24.40;;;6.37;;
7899;SDS011;3995;50.856;4.404;2023-01-05T05:53:52;25.63;;;7.50;;
7899;SDS011;3995;50.856;4.404;2023-01-05T05:56:19;31.97;;;7.03;;
7899;SDS011;3995;50.856;4.404;2023-01-05T05:58:47;30.33;;;7.90;;
7899;SDS011;3995;50.856;4.404;2023-01-05T06:01:14;26.77;;;6.97;;
7899;SDS011;3995;50.856;4.404;2023-01-05T06:03:42;30.53;;;7.77;;
7899;SDS011;3995;50.856;4.404;2023-01-05T06:06:09;27.40;;;7.07;;
7899;SDS011;3995;50.856;4.404;2023-01-05T06:08:38;33.40;;;7.63;;
7899;SDS011;3995;50.856;4.404;2023-01-05T06:11:06;22.70;;;6.60;;
7899;SDS011;3995;50.856;4.404;2023-01-05T06:13:33;31.67;;;7.20;;
7899;SDS011;3995;50.856;4.404;2023-01-05T06:16:00;31.00;;;6.40;;
7899;SDS011;3995;50.856;4.404;2023-01-05T06:18:28;31.57;;;6.60;;
7899;SDS011;3995;50.856;4.404;2023-01-05T06:20:55;32.43;;;7.90;;
7899;SDS011;3995;50.856;4.404;2023-01-05T06:23:23;24.57;;;7.30;;
7899;SDS011;3995;50.856;4.404;2023-01-05T06:25:52;22.27;;;7.17;;
7899;SDS011;3995;50.856;4.404;2023-01-05T06:28:19;24.83;;;7.00;;
7899;SDS011;3995;50.856;4.404;2023-01-05T06:30:47;29.90;;;7.60;;
7899;SDS011;3995;50.856;4.404;2023-01-05T06:33:15;22.07;;;7.10;;
7899;SDS011;3995;50.856;4.404;2023-01-05T06:35:43;25.90;;;7.43;;
7899;SDS011;3995;50.856;4.404;2023-01-05T06:38:10;29.83;;;7.33;;
7899;SDS011;3995;50.856;4.404;2023-01-05T06:40:40;28.80;;;6.50;;
7899;SDS011;3995;50.856;4.404;2023-01-05T06:43:10;25.90;;;8.10;;
7899;SDS011;3995;50.856;4.404;2023-01-05T06:45:37;26.77;;;7.37;;
7899;SDS011;3995;50.856;4.404;2023-01-05T06:48:05;27.07;;;7.10;;
7899;SDS011;3995;50.856;4.404;2023-01-05T06:50:32;26.87;;;6.47;;
7899;SDS011;3995;50.856;4.404;2023-01-05T06:53:00;32.80;;;8.27;;
7899;SDS011;3995;50.856;4.404;2023-01-05T06:55:27;16.57;;;6.30;;
7899;SDS011;3995;50.856;4.404;2023-01-05T06:57:55;35.63;;;7.73;;
7899;SDS011;3995;50.856;4.404;2023-01-05T07:00:25;28.73;;;6.70;;
7899;SDS011;3995;50.856;4.404;2023-01-05T07:02:53;35.97;;;7.43;;
7899;SDS011;3995;50.856;4.404;2023-01-05T07:05:21;27.53;;;7.70;;
7899;SDS011;3995;50.856;4.404;2023-01-05T07:07:49;30.13;;;7.37;;
7899;SDS011;3995;50.856;4.404;2023-01-05T07:10:16;32.23;;;7.83;;
7899;SDS011;3995;50.856;4.404;2023-01-05T07:12:43;33.60;;;7.90;;
7899;SDS011;3995;50.856;4.404;2023-01-05T07:15:11;20.17;;;6.80;;
7899;SDS011;3995;50.856;4.404;2023-01-05T07:17:40;29.43;;;7.33;;
7899;SDS011;3995;50.856;4.404;2023-01-05T07:20:08;28.77;;;7.33;;
7899;SDS011;3995;50.856;4.404;2023-01-05T07:22:36;27.73;;;6.50;;
7899;SDS011;3995;50.856;4.404;2023-01-05T07:25:03;23.43;;;6.87;;
7899;SDS011;3995;50.856;4.404;2023-01-05T07:27:31;21.93;;;5.83;;
7899;SDS011;3995;50.856;4.404;2023-01-05T07:29:58;30.00;;;7.27;;
7899;SDS011;3995;50.856;4.404;2023-01-05T07:32:26;27.00;;;6.60;;
7899;SDS011;3995;50.856;4.404;2023-01-05T07:34:54;17.93;;;6.33;;
7899;SDS011;3995;50.856;4.404;2023-01-05T07:37:22;29.00;;;6.93;;
7899;SDS011;3995;50.856;4.404;2023-01-05T07:39:50;25.47;;;7.37;;
7899;SDS011;3995;50.856;4.404;2023-01-05T07:42:17;21.67;;;7.23;;
7899;SDS011;3995;50.856;4.404;2023-01-05T07:44:45;25.93;;;6.67;;
7899;SDS011;3995;50.856;4.404;2023-01-05T07:47:12;23.60;;;6.57;;
7899;SDS011;3995;50.856;4.404;2023-01-05T07:49:39;20.27;;;5.63;;
7899;SDS011;3995;50.856;4.404;2023-01-05T07:52:09;26.67;;;7.60;;
7899;SDS011;3995;50.856;4.404;2023-01-05T07:54:36;25.07;;;6.63;;
7899;SDS011;3995;50.856;4.404;2023-01-05T07:57:04;28.20;;;7.27;;
7899;SDS011;3995;50.856;4.404;2023-01-05T07:59:31;31.37;;;7.13;;
7899;SDS011;3995;50.856;4.404;2023-01-05T08:02:04;27.47;;;7.60;;
7899;SDS011;3995;50.856;4.404;2023-01-05T08:04:32;23.10;;;6.53;;
7899;SDS011;3995;50.856;4.404;2023-01-05T08:06:59;23.20;;;6.32;;
7899;SDS011;3995;50.856;4.404;2023-01-05T08:09:28;27.13;;;7.00;;
7899;SDS011;3995;50.856;4.404;2023-01-05T08:12:13;28.13;;;8.23;;
7899;SDS011;3995;50.856;4.404;2023-01-05T08:14:40;17.90;;;6.60;;
7899;SDS011;3995;50.856;4.404;2023-01-05T08:17:08;36.30;;;8.20;;
7899;SDS011;3995;50.856;4.404;2023-01-05T08:19:36;28.03;;;7.60;;
7899;SDS011;3995;50.856;4.404;2023-01-05T08:22:03;28.70;;;7.60;;
7899;SDS011;3995;50.856;4.404;2023-01-05T08:24:32;27.00;;;7.37;;
7899;SDS011;3995;50.856;4.404;2023-01-05T08:26:59;26.40;;;7.73;;
7899;SDS011;3995;50.856;4.404;2023-01-05T08:29:26;26.43;;;6.70;;
7899;SDS011;3995;50.856;4.404;2023-01-05T08:31:54;25.20;;;6.67;;
7899;SDS011;3995;50.856;4.404;2023-01-05T08:34:22;26.63;;;7.40;;
7899;SDS011;3995;50.856;4.404;2023-01-05T08:36:49;22.40;;;6.77;;
7899;SDS011;3995;50.856;4.404;2023-01-05T08:39:16;26.20;;;7.27;;
7899;SDS011;3995;50.856;4.404;2023-01-05T08:41:45;31.60;;;8.00;;
7899;SDS011;3995;50.856;4.404;2023-01-05T08:44:13;24.57;;;5.90;;
7899;SDS011;3995;50.856;4.404;2023-01-05T08:46:40;26.67;;;7.57;;
7899;SDS011;3995;50.856;4.404;2023-01-05T08:49:08;29.60;;;7.73;;
7899;SDS011;3995;50.856;4.404;2023-01-05T08:51:35;36.87;;;8.90;;
7899;SDS011;3995;50.856;4.404;2023-01-05T08:54:03;24.23;;;6.00;;
7899;SDS011;3995;50.856;4.404;2023-01-05T08:56:30;26.00;;;7.20;;
7899;SDS011;3995;50.856;4.404;2023-01-05T08:59:00;24.07;;;7.10;;
7899;SDS011;3995;50.856;4.404;2023-01-05T09:01:28;29.87;;;7.87;;
7899;SDS011;3995;50.856;4.404;2023-01-05T09:03:55;25.08;;;6.75;;
7899;SDS011;3995;50.856;4.404;2023-01-05T09:06:22;31.20;;;7.90;;
7899;SDS011;3995;50.856;4.404;2023-01-05T09:08:50;31.53;;;6.50;;
7899;SDS011;3995;50.856;4.404;2023-01-05T09:11:19;23.77;;;7.63;;
7899;SDS011;3995;50.856;4.404;2023-01-05T09:13:49;28.73;;;6.60;;
7899;SDS011;3995;50.856;4.404;2023-01-05T09:16:20;23.13;;;6.33;;
7899;SDS011;3995;50.856;4.404;2023-01-05T09:18:49;33.00;;;7.13;;
7899;SDS011;3995;50.856;4.404;2023-01-05T09:21:18;24.13;;;6.53;;
7899;SDS011;3995;50.856;4.404;2023-01-05T09:23:45;24.33;;;7.40;;
7899;SDS011;3995;50.856;4.404;2023-01-05T09:26:13;23.20;;;7.57;;
7899;SDS011;3995;50.856;4.404;2023-01-05T09:28:41;22.30;;;6.40;;
7899;SDS011;3995;50.856;4.404;2023-01-05T09:31:10;31.87;;;7.30;;
7899;SDS011;3995;50.856;4.404;2023-01-05T09:33:40;28.90;;;7.70;;
7899;SDS011;3995;50.856;4.404;2023-01-05T09:36:08;27.73;;;7.60;;
7899;SDS011;3995;50.856;4.404;2023-01-05T09:38:36;29.27;;;7.90;;
7899;SDS011;3995;50.856;4.404;2023-01-05T09:41:04;24.93;;;6.83;;
7899;SDS011;3995;50.856;4.404;2023-01-05T09:43:38;30.17;;;7.43;;
7899;SDS011;3995;50.856;4.404;2023-01-05T09:46:08;22.87;;;7.23;;
7899;SDS011;3995;50.856;4.404;2023-01-05T09:48:41;22.40;;;7.77;;
7899;SDS011;3995;50.856;4.404;2023-01-05T09:51:12;26.40;;;7.63;;
7899;SDS011;3995;50.856;4.404;2023-01-05T09:53:40;26.83;;;7.13;;
7899;SDS011;3995;50.856;4.404;2023-01-05T09:56:11;31.67;;;7.50;;
7899;SDS011;3995;50.856;4.404;2023-01-05T09:58:47;16.87;;;4.90;;
7899;SDS011;3995;50.856;4.404;2023-01-05T10:01:18;25.23;;;6.80;;
7899;SDS011;3995;50.856;4.404;2023-01-05T10:03:53;30.40;;;7.57;;
7899;SDS011;3995;50.856;4.404;2023-01-05T10:06:24;31.40;;;7.70;;
7899;SDS011;3995;50.856;4.404;2023-01-05T10:08:56;27.17;;;7.60;;
7899;SDS011;3995;50.856;4.404;2023-01-05T10:11:27;23.57;;;6.20;;
7899;SDS011;3995;50.856;4.404;2023-01-05T10:14:21;30.83;;;7.80;;
7899;SDS011;3995;50.856;4.404;2023-01-05T10:16:52;25.90;;;6.53;;
7899;SDS011;3995;50.856;4.404;2023-01-05T10:19:20;23.67;;;6.53;;
7899;SDS011;3995;50.856;4.404;2023-01-05T10:21:51;37.37;;;7.40;;
7899;SDS011;3995;50.856;4.404;2023-01-05T10:24:35;26.40;;;7.43;;
7899;SDS011;3995;50.856;4.404;2023-01-05T10:27:13;30.80;;;7.63;;
7899;SDS011;3995;50.856;4.404;2023-01-05T10:29:44;25.10;;;8.70;;
7899;SDS011;3995;50.856;4.404;2023-01-05T10:32:23;22.23;;;6.47;;
7899;SDS011;3995;50.856;4.404;2023-01-05T10:34:55;26.30;;;6.90;;
7899;SDS011;3995;50.856;4.404;2023-01-05T10:37:29;23.00;;;6.10;;
7899;SDS011;3995;50.856;4.404;2023-01-05T10:40:20;22.30;;;6.30;;
7899;SDS011;3995;50.856;4.404;2023-01-05T10:43:12;32.40;;;6.83;;
7899;SDS011;3995;50.856;4.404;2023-01-05T10:45:48;19.67;;;6.37;;
7899;SDS011;3995;50.856;4.404;2023-01-05T10:48:16;26.93;;;7.57;;
7899;SDS011;3995;50.856;4.404;2023-01-05T10:50:50;21.10;;;6.73;;
7899;SDS011;3995;50.856;4.404;2023-01-05T10:53:20;24.05;;;5.65;;
7899;SDS011;3995;50.856;4.404;2023-01-05T10:55:52;24.37;;;6.23;;
7899;SDS011;3995;50.856;4.404;2023-01-05T10:58:25;20.57;;;6.57;;
7899;SDS011;3995;50.856;4.404;2023-01-05T11:00:54;31.97;;;7.43;;
7899;SDS011;3995;50.856;4.404;2023-01-05T11:03:26;19.53;;;6.30;;
7899;SDS011;3995;50.856;4.404;2023-01-05T11:06:00;24.90;;;7.37;;
7899;SDS011;3995;50.856;4.404;2023-01-05T11:08:29;19.60;;;6.50;;
7899;SDS011;3995;50.856;4.404;2023-01-05T11:10:57;24.03;;;6.17;;
7899;SDS011;3995;50.856;4.404;2023-01-05T11:13:27;28.37;;;7.37;;
7899;SDS011;3995;50.856;4.404;2023-01-05T11:15:58;32.33;;;6.73;;
7899;SDS011;3995;50.856;4.404;2023-01-05T11:18:35;23.23;;;6.20;;
7899;SDS011;3995;50.856;4.404;2023-01-05T11:21:14;21.90;;;5.90;;
7899;SDS011;3995;50.856;4.404;2023-01-05T11:23:44;29.47;;;8.47;;
7899;SDS011;3995;50.856;4.404;2023-01-05T11:26:20;22.30;;;7.00;;
7899;SDS011;3995;50.856;4.404;2023-01-05T11:28:56;29.67;;;6.43;;
7899;SDS011;3995;50.856;4.404;2023-01-05T11:31:40;26.40;;;7.53;;
7899;SDS011;3995;50.856;4.404;2023-01-05T11:34:21;32.57;;;7.37;;
7899;SDS011;3995;50.856;4.404;2023-01-05T11:37:04;25.53;;;7.07;;
7899;SDS011;3995;50.856;4.404;2023-01-05T11:39:39;19.30;;;6.43;;
7899;SDS011;3995;50.856;4.404;2023-01-05T11:42:10;18.47;;;6.93;;
7899;SDS011;3995;50.856;4.404;2023-01-05T11:44:44;30.87;;;6.97;;
7899;SDS011;3995;50.856;4.404;2023-01-05T11:47:17;28.13;;;8.00;;
7899;SDS011;3995;50.856;4.404;2023-01-05T11:49:48;31.63;;;7.07;;
7899;SDS011;3995;50.856;4.404;2023-01-05T11:58:09;32.17;;;8.57;;
7899;SDS011;3995;50.856;4.404;2023-01-05T12:00:43;30.53;;;7.23;;
7899;SDS011;3995;50.856;4.404;2023-01-05T12:03:47;27.20;;;7.60;;
7899;SDS011;3995;50.856;4.404;2023-01-05T12:09:40;26.07;;;7.60;;
7899;SDS011;3995;50.856;4.404;2023-01-05T12:12:17;34.40;;;7.60;;
7899;SDS011;3995;50.856;4.404;2023-01-05T12:18:02;30.60;;;8.17;;
7899;SDS011;3995;50.856;4.404;2023-01-05T12:20:46;34.23;;;7.27;;
7899;SDS011;3995;50.856;4.404;2023-01-05T12:23:29;32.43;;;7.73;;
7899;SDS011;3995;50.856;4.404;2023-01-05T12:26:13;28.63;;;8.03;;
7899;SDS011;3995;50.856;4.404;2023-01-05T12:28:59;27.00;;;7.70;;
7899;SDS011;3995;50.856;4.404;2023-01-05T12:31:47;22.40;;;6.13;;
7899;SDS011;3995;50.856;4.404;2023-01-05T12:34:32;26.57;;;8.00;;
7899;SDS011;3995;50.856;4.404;2023-01-05T12:37:23;31.73;;;8.00;;
7899;SDS011;3995;50.856;4.404;2023-01-05T12:45:49;37.10;;;8.07;;
7899;SDS011;3995;50.856;4.404;2023-01-05T12:48:26;31.07;;;7.63;;
7899;SDS011;3995;50.856;4.404;2023-01-05T12:50:59;38.63;;;9.40;;
7899;SDS011;3995;50.856;4.404;2023-01-05T12:53:36;31.90;;;8.07;;
7899;SDS011;3995;50.856;4.404;2023-01-05T12:56:13;30.57;;;8.60;;
7899;SDS011;3995;50.856;4.404;2023-01-05T12:58:47;28.40;;;8.37;;
7899;SDS011;3995;50.856;4.404;2023-01-05T13:01:26;28.93;;;7.83;;
7899;SDS011;3995;50.856;4.404;2023-01-05T13:03:57;29.30;;;7.93;;
7899;SDS011;3995;50.856;4.404;2023-01-05T13:06:30;32.10;;;8.20;;
7899;SDS011;3995;50.856;4.404;2023-01-05T13:09:03;27.13;;;7.30;;
7899;SDS011;3995;50.856;4.404;2023-01-05T13:11:40;33.33;;;7.63;;
7899;SDS011;3995;50.856;4.404;2023-01-05T13:14:16;19.20;;;6.00;;
7899;SDS011;3995;50.856;4.404;2023-01-05T13:16:47;21.20;;;6.57;;
7899;SDS011;3995;50.856;4.404;2023-01-05T13:19:19;28.37;;;7.90;;
7899;SDS011;3995;50.856;4.404;2023-01-05T13:21:51;35.30;;;8.80;;
7899;SDS011;3995;50.856;4.404;2023-01-05T13:24:21;23.30;;;6.00;;
7899;SDS011;3995;50.856;4.404;2023-01-05T13:26:53;24.10;;;5.77;;
7899;SDS011;3995;50.856;4.404;2023-01-05T13:29:26;21.43;;;5.80;;
7899;SDS011;3995;50.856;4.404;2023-01-05T13:32:00;28.50;;;7.53;;
7899;SDS011;3995;50.856;4.404;2023-01-05T13:35:00;23.53;;;6.10;;
7899;SDS011;3995;50.856;4.404;2023-01-05T13:37:42;13.13;;;4.63;;
7899;SDS011;3995;50.856;4.404;2023-01-05T13:43:33;18.10;;;5.43;;
7899;SDS011;3995;50.856;4.404;2023-01-05T13:49:21;11.37;;;3.87;;
7899;SDS011;3995;50.856;4.404;2023-01-05T13:52:01;9.73;;;3.13;;
7899;SDS011;3995;50.856;4.404;2023-01-05T13:54:39;9.10;;;3.40;;
7899;SDS011;3995;50.856;4.404;2023-01-05T13:57:11;10.57;;;3.90;;
7899;SDS011;3995;50.856;4.404;2023-01-05T13:59:41;8.93;;;2.83;;
7899;SDS011;3995;50.856;4.404;2023-01-05T14:02:24;7.07;;;3.07;;
7899;SDS011;3995;50.856;4.404;2023-01-05T14:04:57;8.60;;;3.07;;
7899;SDS011;3995;50.856;4.404;2023-01-05T14:07:24;7.03;;;2.70;;
7899;SDS011;3995;50.856;4.404;2023-01-05T14:09:54;5.37;;;2.50;;
7899;SDS011;3995;50.856;4.404;2023-01-05T14:12:24;6.10;;;3.03;;
7899;SDS011;3995;50.856;4.404;2023-01-05T14:15:02;7.63;;;2.77;;
7899;SDS011;3995;50.856;4.404;2023-01-05T14:17:53;6.43;;;2.63;;
7899;SDS011;3995;50.856;4.404;2023-01-05T14:20:41;6.67;;;2.87;;
7899;SDS011;3995;50.856;4.404;2023-01-05T14:26:15;9.20;;;3.37;;
7899;SDS011;3995;50.856;4.404;2023-01-05T14:28:44;7.00;;;2.70;;
7899;SDS011;3995;50.856;4.404;2023-01-05T14:34:13;4.73;;;2.67;;
7899;SDS011;3995;50.856;4.404;2023-01-05T14:36:43;7.57;;;3.47;;
7899;SDS011;3995;50.856;4.404;2023-01-05T14:39:23;9.20;;;3.03;;
7899;SDS011;3995;50.856;4.404;2023-01-05T14:41:58;7.17;;;2.80;;
7899;SDS011;3995;50.856;4.404;2023-01-05T14:44:33;7.37;;;2.80;;
7899;SDS011;3995;50.856;4.404;2023-01-05T14:47:02;8.37;;;3.27;;
7899;SDS011;3995;50.856;4.404;2023-01-05T14:49:33;7.83;;;3.67;;
7899;SDS011;3995;50.856;4.404;2023-01-05T14:52:02;9.20;;;3.33;;
7899;SDS011;3995;50.856;4.404;2023-01-05T14:54:35;7.30;;;2.97;;
7899;SDS011;3995;50.856;4.404;2023-01-05T14:57:34;7.33;;;3.00;;
7899;SDS011;3995;50.856;4.404;2023-01-05T15:00:05;8.67;;;3.37;;
7899;SDS011;3995;50.856;4.404;2023-01-05T15:02:42;15.30;;;3.43;;
7899;SDS011;3995;50.856;4.404;2023-01-05T15:05:18;6.60;;;2.80;;
7899;SDS011;3995;50.856;4.404;2023-01-05T15:07:48;6.83;;;3.10;;
7899;SDS011;3995;50.856;4.404;2023-01-05T15:10:29;6.60;;;2.77;;
7899;SDS011;3995;50.856;4.404;2023-01-05T15:16:57;7.70;;;3.03;;
7899;SDS011;3995;50.856;4.404;2023-01-05T15:19:48;7.30;;;2.67;;
7899;SDS011;3995;50.856;4.404;2023-01-05T15:22:35;5.57;;;3.07;;
7899;SDS011;3995;50.856;4.404;2023-01-05T15:28:42;9.43;;;3.03;;
7899;SDS011;3995;50.856;4.404;2023-01-05T15:31:38;6.73;;;3.50;;
7899;SDS011;3995;50.856;4.404;2023-01-05T15:34:14;4.10;;;2.60;;
7899;SDS011;3995;50.856;4.404;2023-01-05T15:36:48;6.67;;;2.73;;
7899;SDS011;3995;50.856;4.404;2023-01-05T15:39:22;5.70;;;3.00;;
7899;SDS011;3995;50.856;4.404;2023-01-05T15:41:52;5.83;;;3.00;;
7899;SDS011;3995;50.856;4.404;2023-01-05T15:44:22;5.53;;;3.37;;
7899;SDS011;3995;50.856;4.404;2023-01-05T15:46:51;4.93;;;2.73;;
7899;SDS011;3995;50.856;4.404;2023-01-05T15:49:21;4.60;;;2.43;;
7899;SDS011;3995;50.856;4.404;2023-01-05T15:51:52;4.47;;;2.77;;
7899;SDS011;3995;50.856;4.404;2023-01-05T15:54:23;4.50;;;2.70;;
7899;SDS011;3995;50.856;4.404;2023-01-05T15:56:52;4.10;;;2.67;;
7899;SDS011;3995;50.856;4.404;2023-01-05T15:59:26;4.27;;;2.40;;
7899;SDS011;3995;50.856;4.404;2023-01-05T16:01:59;5.77;;;2.33;;
7899;SDS011;3995;50.856;4.404;2023-01-05T16:04:26;4.10;;;2.80;;
7899;SDS011;3995;50.856;4.404;2023-01-05T16:06:56;5.70;;;3.00;;
7899;SDS011;3995;50.856;4.404;2023-01-05T16:09:28;4.30;;;3.40;;
7899;SDS011;3995;50.856;4.404;2023-01-05T16:11:59;3.90;;;2.70;;